Buffalo, SD (57720)

10:00 PM MDT on July 25, 2016 (GMT -0600)
Hettinger Municipal | | Change Station

Elev 2703 ft 46.01 °N, 102.66 °W | Updated 7 minutes ago

Clear
Clear
77 °F
Feels Like 77 °F
N
4
Wind Variable Wind from North

Today
High -- | Low -- °F
--% Chance of Precip.
Yesterday
High -- | Low -- °F
Precip. -- in
Pressure 29.91 in
Visibility 10.0 miles
Clouds Clear
Dew Point 51 °F
Humidity 40%
Rainfall 0.00 in
Snow Depth Not available.
5:31 AM 8:30 PM
Waning Gibbous, 59% visible
METAR KHEI 260353Z AUTO 01003KT 10SM CLR 25/11 A2999 RMK AO2 SLP127 T02500106
Pressure 29.91 in
Visibility 10.0 miles
Clouds Clear
Dew Point 51 °F
Humidity 40%
Rainfall 0.00 in
Snow Depth Not available.
5:31 AM 8:30 PM
Waning Gibbous, 59% visible
METAR KHEI 260353Z AUTO 01003KT 10SM CLR 25/11 A2999 RMK AO2 SLP127 T02500106

10-Day Weather Forecast

Almanac

Astronomy

Jul. 25, 2016 Rise Set
Actual Time
Civil Twilight
Nautical Twilight
Astronomical Twilight
Moon
Length of Visible Light
Length of Day
Tomorrow will be .
, % of the Moon is Illuminated

Today's Extremes

State Highs State Lows

Community

WunderPhotos

Upload Photos

1,927,523 photos uploaded!

WunderBlog® & News

Nearby

Air Quality

  Air Quality AQ Index Pollutant
Not available.

Snow Depth

Station Depth Elevation

Earthquake Activity

City Distance Mag. Time & Date
Minimum magnitude displayed is 2.5.

Coastal Water Temperatures

Place Temperature

Stations

Nearby Weather Stations

Station Location Temp. Windchill Dew Point Humidity Wind Precip. Elev Updated Type
                   

Watches & Warnings

There are currently no watches in effect.